createdAt,value
2019-04-22T00:00:54.235Z,28.00
2019-04-22T00:03:36.081Z,28.30
2019-04-22T00:06:21.054Z,28.20
2019-04-22T00:08:50.592Z,28.10
2019-04-22T00:11:26.753Z,28.30
2019-04-22T00:13:55.289Z,28.30
2019-04-22T00:16:27.953Z,28.40
2019-04-22T00:19:07.807Z,28.60
2019-04-22T00:21:27.515Z,29.60
2019-04-22T00:23:59.098Z,30.90
2019-04-22T00:26:28.983Z,30.70
2019-04-22T00:29:03.954Z,31.60
2019-04-22T00:31:46.241Z,31.10
2019-04-22T00:34:16.646Z,31.60
2019-04-22T00:36:58.648Z,32.70
2019-04-22T00:39:30.700Z,33.10
2019-04-22T00:42:00.067Z,33.60
2019-04-22T00:44:35.449Z,36.20
2019-04-22T00:47:01.191Z,35.00
2019-04-22T00:52:03.681Z,33.90
2019-04-22T00:54:28.361Z,34.80
2019-04-22T00:57:01.252Z,36.00
2019-04-22T00:59:29.789Z,36.60
2019-04-22T01:02:01.995Z,36.60
2019-04-22T01:04:39.973Z,34.40
2019-04-22T01:07:06.266Z,39.60
2019-04-22T01:09:43.246Z,36.80
2019-04-22T01:12:07.317Z,36.10
2019-04-22T01:14:38.239Z,36.70
2019-04-22T01:17:06.557Z,36.80
2019-04-22T01:19:47.189Z,38.40
2019-04-22T01:22:12.883Z,37.50
2019-04-22T01:24:37.024Z,37.80
2019-04-22T01:27:01.954Z,40.80
2019-04-22T01:29:30.388Z,40.70
2019-04-22T01:31:50.997Z,39.50
2019-04-22T01:34:37.492Z,40.20
2019-04-22T01:37:09.062Z,40.20
2019-04-22T01:39:49.960Z,40.90
2019-04-22T01:42:16.920Z,42.60
2019-04-22T01:44:45.344Z,41.10
2019-04-22T01:47:30.257Z,41.80
2019-04-22T01:49:52.719Z,41.30
2019-04-22T01:52:23.167Z,41.90
2019-04-22T01:54:59.733Z,41.20
2019-04-22T01:57:27.099Z,42.30
2019-04-22T01:59:45.902Z,43.10
2019-04-22T02:02:22.260Z,44.00
2019-04-22T02:05:01.249Z,43.50
2019-04-22T02:07:30.512Z,44.40
2019-04-22T02:09:57.164Z,43.70
2019-04-22T02:12:25.881Z,43.70
2019-04-22T02:14:59.430Z,44.30
2019-04-22T02:17:33.255Z,44.50
2019-04-22T02:20:06.661Z,45.70
2019-04-22T02:22:57.044Z,45.40
2019-04-22T02:25:11.739Z,46.00
2019-04-22T02:27:40.396Z,45.80
2019-04-22T02:30:30.614Z,46.90
2019-04-22T02:32:52.651Z,46.30
2019-04-22T02:35:11.597Z,47.10
2019-04-22T02:37:42.230Z,46.90
2019-04-22T02:40:10.186Z,46.00
2019-04-22T02:42:42.867Z,45.80
2019-04-22T02:45:07.748Z,46.90
2019-04-22T02:47:42.168Z,48.60
2019-04-22T02:50:08.819Z,47.70
2019-04-22T02:52:43.675Z,47.20
2019-04-22T02:55:15.434Z,47.10
2019-04-22T03:00:21.496Z,48.60
2019-04-22T03:03:03.885Z,50.10
2019-04-22T03:05:27.741Z,50.60
2019-04-22T03:07:58.639Z,48.00
2019-04-22T03:10:29.458Z,49.20
2019-04-22T03:12:53.927Z,49.50
2019-04-22T03:15:20.016Z,50.50
2019-04-22T03:18:00.852Z,50.90
2019-04-22T03:20:42.606Z,51.90
2019-04-22T03:23:06.968Z,51.50
2019-04-22T03:25:51.691Z,50.70
2019-04-22T03:27:56.438Z,49.30
2019-04-22T03:30:48.168Z,50.20
2019-04-22T03:33:12.084Z,51.30
2019-04-22T03:37:56.312Z,51.60
2019-04-22T03:40:43.318Z,52.10
2019-04-22T03:43:02.357Z,50.90
2019-04-22T03:48:05.220Z,52.90
2019-04-22T03:50:28.052Z,52.30
2019-04-22T03:53:11.452Z,53.40
2019-04-22T03:57:59.134Z,51.40
2019-04-22T04:03:07.081Z,51.30
2019-04-22T04:05:47.885Z,54.20
2019-04-22T04:08:14.567Z,52.60
2019-04-22T04:10:42.111Z,55.00
2019-04-22T04:13:23.103Z,55.20
2019-04-22T04:15:38.506Z,53.70
2019-04-22T04:18:11.389Z,54.50
2019-04-22T04:21:12.562Z,52.20
2019-04-22T04:23:35.110Z,53.20
2019-04-22T04:26:07.371Z,51.90
2019-04-22T04:28:41.428Z,54.50
2019-04-22T04:30:55.240Z,54.90
2019-04-22T04:38:23.868Z,54.50
2019-04-22T04:43:25.200Z,55.40
2019-04-22T04:48:47.127Z,56.50
2019-04-22T04:53:33.741Z,56.20
2019-04-22T04:56:03.142Z,57.60
2019-04-22T04:58:47.445Z,57.60
2019-04-22T05:01:07.307Z,56.30
2019-04-22T05:06:10.651Z,56.10
2019-04-22T05:11:05.832Z,58.40
2019-04-22T05:16:25.379Z,57.90
2019-04-22T05:18:52.780Z,58.80
2019-04-22T05:23:37.188Z,58.90
2019-04-22T05:26:16.545Z,60.60
2019-04-22T05:28:38.142Z,61.20
2019-04-22T05:31:09.752Z,60.00
2019-04-22T05:33:42.826Z,62.20
2019-04-22T05:36:10.188Z,62.80
2019-04-22T05:38:53.605Z,64.50
2019-04-22T05:41:14.216Z,66.90
2019-04-22T05:43:42.569Z,64.70
2019-04-22T05:46:09.171Z,63.80
2019-04-22T05:48:52.224Z,62.50
2019-04-22T05:51:09.736Z,60.80
2019-04-22T05:53:41.615Z,58.50
2019-04-22T05:56:22.392Z,58.50
2019-04-22T06:03:56.482Z,55.10
2019-04-22T06:08:53.777Z,51.30
2019-04-22T06:11:31.279Z,52.20
2019-04-22T06:13:46.620Z,50.70
2019-04-22T06:16:26.598Z,49.90
2019-04-22T06:19:03.152Z,48.40
2019-04-22T06:21:35.582Z,48.20
2019-04-22T06:24:04.614Z,48.30
2019-04-22T06:26:40.166Z,47.90
2019-04-22T06:29:01.265Z,48.50
2019-04-22T06:31:49.901Z,48.00
2019-04-22T06:34:10.799Z,46.60
2019-04-22T06:36:38.089Z,47.00
2019-04-22T06:39:10.453Z,46.00
2019-04-22T06:41:40.293Z,46.10
2019-04-22T06:44:10.942Z,43.60
2019-04-22T06:46:41.859Z,43.10
2019-04-22T06:49:12.873Z,43.10
2019-04-22T06:51:42.266Z,41.60
2019-04-22T06:54:10.729Z,41.00
2019-04-22T06:56:42.772Z,40.90
2019-04-22T06:59:11.892Z,40.10
2019-04-22T07:01:45.749Z,40.30
2019-04-22T07:04:14.883Z,38.70
2019-04-22T07:06:48.126Z,37.10
2019-04-22T07:11:48.252Z,37.40
2019-04-22T07:14:20.383Z,37.80
2019-04-22T07:19:20.640Z,38.00
2019-04-22T07:21:54.771Z,37.00
2019-04-22T07:24:34.504Z,37.20
2019-04-22T07:26:50.757Z,37.60
2019-04-22T07:29:23.616Z,36.60
2019-04-22T07:31:56.293Z,38.20
2019-04-22T07:34:26.503Z,35.80
2019-04-22T07:37:01.413Z,35.60
2019-04-22T07:39:25.581Z,33.60
2019-04-22T07:41:51.447Z,34.50
2019-04-22T07:49:33.558Z,34.40
2019-04-22T07:51:56.189Z,34.80
2019-04-22T07:54:26.371Z,33.70
2019-04-22T07:57:04.288Z,33.40
2019-04-22T07:59:32.179Z,32.70
2019-04-22T08:01:56.211Z,33.00
2019-04-22T08:07:10.707Z,33.10
2019-04-22T08:09:41.821Z,31.00
2019-04-22T08:11:59.308Z,33.40
2019-04-22T08:14:34.432Z,30.10
2019-04-22T08:17:30.793Z,30.70
2019-04-22T08:19:56.257Z,30.70
2019-04-22T08:22:24.104Z,32.60
2019-04-22T08:24:45.400Z,30.60
2019-04-22T08:27:11.583Z,30.60
2019-04-22T08:29:46.089Z,32.30
2019-04-22T08:32:27.982Z,30.20
2019-04-22T08:34:37.079Z,30.60
2019-04-22T08:37:41.901Z,32.10
2019-04-22T08:39:40.623Z,31.60
2019-04-22T08:42:23.522Z,30.00
2019-04-22T08:47:21.403Z,32.40
2019-04-22T08:49:56.612Z,29.10
2019-04-22T08:54:51.286Z,28.10
2019-04-22T08:57:20.417Z,27.20
2019-04-22T08:59:50.028Z,27.20
2019-04-22T09:02:31.852Z,28.20
2019-04-22T09:04:48.031Z,28.30
2019-04-22T09:07:45.018Z,29.30
2019-04-22T09:09:51.886Z,25.80
2019-04-22T09:12:34.665Z,26.50
2019-04-22T09:14:49.288Z,26.60
2019-04-22T09:17:40.228Z,26.40
2019-04-22T09:20:00.017Z,26.10
2019-04-22T09:22:28.182Z,27.00
2019-04-22T09:25:10.398Z,26.50
2019-04-22T09:27:37.017Z,27.20
2019-04-22T09:29:59.183Z,27.60
2019-04-22T09:32:32.763Z,27.40
2019-04-22T09:35:02.187Z,27.80
2019-04-22T09:37:34.509Z,28.50
2019-04-22T09:40:10.631Z,28.60
2019-04-22T09:42:41.008Z,28.90
2019-04-22T09:45:05.992Z,29.20
2019-04-22T09:47:46.297Z,28.50
2019-04-22T09:50:24.225Z,28.80
2019-04-22T09:52:44.070Z,28.70
2019-04-22T09:57:41.302Z,29.10
2019-04-22T10:00:08.876Z,28.50
2019-04-22T10:05:15.096Z,28.80
2019-04-22T10:07:39.228Z,28.70
2019-04-22T10:10:29.988Z,29.50
2019-04-22T10:12:43.198Z,29.70
2019-04-22T10:15:13.784Z,30.60
2019-04-22T10:17:47.830Z,29.90
2019-04-22T10:20:16.739Z,30.60
2019-04-22T10:22:51.992Z,30.90
2019-04-22T10:25:16.698Z,30.20
2019-04-22T10:27:53.645Z,30.60
2019-04-22T10:30:25.151Z,31.30
2019-04-22T10:32:50.863Z,31.00
2019-04-22T10:35:13.201Z,30.70
2019-04-22T10:37:40.390Z,29.50
2019-04-22T10:40:15.705Z,29.30
2019-04-22T10:42:45.406Z,30.10
2019-04-22T10:45:14.748Z,30.20
2019-04-22T10:47:45.841Z,29.90
2019-04-22T10:50:16.473Z,29.80
2019-04-22T10:52:45.604Z,30.10
2019-04-22T10:55:14.810Z,29.70
2019-04-22T10:57:44.409Z,30.00
2019-04-22T11:00:15.653Z,29.30
2019-04-22T11:02:45.704Z,29.90
2019-04-22T11:05:16.491Z,31.00
2019-04-22T11:07:51.849Z,29.90
2019-04-22T11:10:34.900Z,28.00
2019-04-22T11:12:47.391Z,29.60
2019-04-22T11:15:18.057Z,29.30
2019-04-22T11:17:49.466Z,28.90
2019-04-22T11:20:19.842Z,30.00
2019-04-22T11:22:49.048Z,29.20
2019-04-22T11:25:18.218Z,29.60
2019-04-22T11:27:47.296Z,29.20
2019-04-22T11:30:19.032Z,29.30
2019-04-22T11:32:48.595Z,29.20
2019-04-22T11:35:17.769Z,29.50
2019-04-22T11:37:46.783Z,28.90
2019-04-22T11:40:24.292Z,28.70
2019-04-22T11:42:48.235Z,29.80
2019-04-22T11:45:17.538Z,29.70
2019-04-22T11:47:47.579Z,29.10
2019-04-22T11:50:17.769Z,29.60
2019-04-22T11:52:46.984Z,29.40
2019-04-22T11:55:17.027Z,29.20
2019-04-22T11:57:47.593Z,29.50
2019-04-22T12:00:20.957Z,28.50
2019-04-22T12:02:51.165Z,29.00
2019-04-22T12:05:21.536Z,29.60
2019-04-22T12:07:50.998Z,29.80
2019-04-22T12:10:30.916Z,29.20
2019-04-22T12:12:51.943Z,29.20
2019-04-22T12:15:22.654Z,29.50
2019-04-22T12:17:53.080Z,29.80
2019-04-22T12:20:23.393Z,27.90
2019-04-22T12:22:53.369Z,28.70
2019-04-22T12:25:34.698Z,27.60
2019-04-22T12:27:55.121Z,28.50
2019-04-22T12:30:25.683Z,28.90
2019-04-22T12:32:54.828Z,28.40
2019-04-22T12:35:24.335Z,28.00
2019-04-22T12:37:58.841Z,27.60
2019-04-22T12:40:34.104Z,27.40
2019-04-22T12:42:55.518Z,27.70
2019-04-22T12:45:24.615Z,27.20
2019-04-22T12:47:53.983Z,26.90
2019-04-22T12:50:29.879Z,26.20
2019-04-22T12:53:02.459Z,27.10
2019-04-22T12:55:27.845Z,27.30
2019-04-22T12:58:00.341Z,27.70
2019-04-22T13:00:27.887Z,27.50
2019-04-22T13:02:56.961Z,27.30
2019-04-22T13:05:26.911Z,27.60
2019-04-22T13:07:56.018Z,27.40
2019-04-22T13:10:26.053Z,27.80
2019-04-22T13:12:57.028Z,27.60
2019-04-22T13:15:26.832Z,28.20
2019-04-22T13:18:06.047Z,27.80
2019-04-22T13:20:28.059Z,27.10
2019-04-22T13:22:58.779Z,27.30
2019-04-22T13:25:30.258Z,27.30
2019-04-22T13:27:58.889Z,27.60
2019-04-22T13:30:30.370Z,27.40
2019-04-22T13:33:00.829Z,26.80
2019-04-22T13:35:30.081Z,27.60
2019-04-22T13:37:59.371Z,26.90
2019-04-22T13:40:28.901Z,27.70
2019-04-22T13:42:58.718Z,27.60
2019-04-22T13:45:27.928Z,27.40
2019-04-22T13:48:11.134Z,27.20
2019-04-22T13:50:56.481Z,27.50
2019-04-22T13:53:37.643Z,26.30
2019-04-22T13:58:14.090Z,27.70
2019-04-22T14:00:32.412Z,27.90
2019-04-22T14:03:36.089Z,27.80
2019-04-22T14:06:06.900Z,28.60
2019-04-22T14:08:37.466Z,27.90
2019-04-22T14:11:19.530Z,27.70
2019-04-22T14:13:37.829Z,28.20
2019-04-22T14:16:07.093Z,28.40
2019-04-22T14:18:37.025Z,28.00
2019-04-22T14:21:06.948Z,28.00
2019-04-22T14:23:36.189Z,28.30
2019-04-22T14:26:07.082Z,28.50
2019-04-22T14:28:39.535Z,28.40
2019-04-22T14:31:10.476Z,28.90
2019-04-22T14:33:42.895Z,28.50
2019-04-22T14:36:11.667Z,28.90
2019-04-22T14:38:41.827Z,28.60
2019-04-22T14:41:30.644Z,29.80
2019-04-22T14:44:49.604Z,29.90
2019-04-22T14:46:39.108Z,29.40
2019-04-22T14:49:04.435Z,29.50
2019-04-22T14:51:33.094Z,29.50
2019-04-22T14:54:05.290Z,29.60
2019-04-22T14:56:16.096Z,30.10
2019-04-22T14:58:45.243Z,29.90
2019-04-22T15:01:14.814Z,30.00
2019-04-22T15:03:44.849Z,29.70
2019-04-22T15:06:15.856Z,30.00
2019-04-22T15:08:45.156Z,29.60
2019-04-22T15:11:14.942Z,29.20
2019-04-22T15:13:45.202Z,29.50
2019-04-22T15:16:29.884Z,29.20
2019-04-22T15:19:27.582Z,28.80
2019-04-22T15:21:56.788Z,29.40
2019-04-22T15:24:27.530Z,29.10
2019-04-22T15:26:58.640Z,30.00
2019-04-22T15:29:29.371Z,29.00
2019-04-22T15:31:59.731Z,29.00
2019-04-22T15:34:30.579Z,29.60
2019-04-22T15:37:00.103Z,29.20
2019-04-22T15:39:29.303Z,29.30
2019-04-22T15:42:09.493Z,29.00
2019-04-22T15:44:30.440Z,28.90
2019-04-22T15:47:00.945Z,29.00
2019-04-22T15:49:31.896Z,28.40
2019-04-22T15:52:02.983Z,29.10
2019-04-22T15:54:31.992Z,29.50
2019-04-22T15:57:02.492Z,29.80
2019-04-22T15:59:48.992Z,29.30
2019-04-22T16:02:04.149Z,29.80
2019-04-22T16:04:34.724Z,29.80
2019-04-22T16:07:05.117Z,29.70
2019-04-22T16:09:34.978Z,29.90
2019-04-22T16:12:16.262Z,29.90
2019-04-22T16:14:43.840Z,29.90
2019-04-22T16:17:10.569Z,30.10
2019-04-22T16:19:41.054Z,30.50
2019-04-22T16:22:16.829Z,30.40
2019-04-22T16:24:52.146Z,30.80
2019-04-22T16:27:24.685Z,30.60
2019-04-22T16:29:55.177Z,30.00
2019-04-22T16:32:25.422Z,30.40
2019-04-22T16:34:54.832Z,30.10
2019-04-22T16:37:25.056Z,30.30
2019-04-22T16:39:54.729Z,30.50
2019-04-22T16:42:31.667Z,30.50
2019-04-22T16:44:55.453Z,30.60
2019-04-22T16:47:25.721Z,30.80
2019-04-22T16:49:55.341Z,30.50
2019-04-22T16:52:25.848Z,30.20
2019-04-22T16:54:55.098Z,31.10
2019-04-22T16:57:24.106Z,31.10
2019-04-22T16:59:53.135Z,31.40
2019-04-22T17:02:50.203Z,31.50
2019-04-22T17:05:47.480Z,31.10
2019-04-22T17:08:16.705Z,30.90
2019-04-22T17:10:46.053Z,31.20
2019-04-22T17:13:20.900Z,31.40
2019-04-22T17:15:47.264Z,31.00
2019-04-22T17:18:17.217Z,31.40
2019-04-22T17:20:46.594Z,31.90
2019-04-22T17:23:15.920Z,32.10
2019-04-22T17:25:48.309Z,36.60
2019-04-22T17:28:17.602Z,33.80
2019-04-22T17:30:47.833Z,35.30
2019-04-22T17:33:18.814Z,36.50
2019-04-22T17:35:50.159Z,36.40
2019-04-22T17:38:27.208Z,38.00
2019-04-22T17:41:06.182Z,36.40
2019-04-22T17:43:48.010Z,33.60
2019-04-22T17:46:19.297Z,31.90
2019-04-22T17:49:04.669Z,32.30
2019-04-22T17:51:36.387Z,31.80
2019-04-22T17:54:07.251Z,31.20
2019-04-22T17:56:37.586Z,31.90
2019-04-22T17:59:10.378Z,31.80
2019-04-22T18:01:39.768Z,31.70
2019-04-22T18:03:55.080Z,31.20
2019-04-22T18:06:48.953Z,31.10
2019-04-22T18:09:14.686Z,30.80
2019-04-22T18:11:49.648Z,30.60
2019-04-22T18:14:29.933Z,30.60
2019-04-22T18:16:48.857Z,30.60
2019-04-22T18:19:15.545Z,30.20
2019-04-22T18:21:41.181Z,30.00
2019-04-22T18:24:06.824Z,30.00
2019-04-22T18:26:47.599Z,30.00
2019-04-22T18:29:16.969Z,29.70
2019-04-22T18:31:41.241Z,29.40
2019-04-22T18:34:13.776Z,29.20
2019-04-22T18:36:49.295Z,29.60
2019-04-22T18:39:22.482Z,29.50
2019-04-22T18:41:48.940Z,29.40
2019-04-22T18:44:23.543Z,29.00
2019-04-22T18:46:52.110Z,29.10
2019-04-22T18:49:26.812Z,29.30
2019-04-22T18:52:29.591Z,29.40
2019-04-22T18:55:11.558Z,29.00
2019-04-22T18:57:46.571Z,29.20
2019-04-22T19:00:10.839Z,28.90
2019-04-22T19:02:50.773Z,29.00
2019-04-22T19:05:27.949Z,29.10
2019-04-22T19:08:16.756Z,29.00
2019-04-22T19:10:44.991Z,29.20
2019-04-22T19:13:36.988Z,29.30
2019-04-22T19:15:53.144Z,29.20
2019-04-22T19:18:20.043Z,29.20
2019-04-22T19:20:47.310Z,29.20
2019-04-22T19:23:12.839Z,29.20
2019-04-22T19:25:36.826Z,29.10
2019-04-22T19:28:17.854Z,29.10
2019-04-22T19:30:47.837Z,29.10
2019-04-22T19:33:19.052Z,29.20
2019-04-22T19:35:41.514Z,29.20
2019-04-22T19:38:10.988Z,29.10
2019-04-22T19:40:58.234Z,29.00
2019-04-22T19:43:22.591Z,29.30
2019-04-22T19:45:48.980Z,29.10
2019-04-22T19:48:27.196Z,29.10
2019-04-22T19:50:59.031Z,29.10
2019-04-22T19:53:25.541Z,28.90
2019-04-22T19:55:50.987Z,29.00
2019-04-22T19:58:23.702Z,29.40
2019-04-22T20:01:16.453Z,29.70
2019-04-22T20:04:15.136Z,29.40
2019-04-22T20:06:47.584Z,29.40
2019-04-22T20:09:26.889Z,29.40
2019-04-22T20:11:51.789Z,29.00
2019-04-22T20:14:21.967Z,29.40
2019-04-22T20:16:43.865Z,29.80
2019-04-22T20:19:33.800Z,29.50
2019-04-22T20:21:53.440Z,30.00
2019-04-22T20:24:12.054Z,29.70
2019-04-22T20:26:56.570Z,29.80
2019-04-22T20:29:31.103Z,29.50
2019-04-22T20:31:59.223Z,29.60
2019-04-22T20:34:32.189Z,29.70
2019-04-22T20:37:08.632Z,29.90
2019-04-22T20:39:33.180Z,30.00
2019-04-22T20:42:14.820Z,30.00
2019-04-22T20:44:35.225Z,30.30
2019-04-22T20:47:00.676Z,30.50
2019-04-22T20:49:40.282Z,30.50
2019-04-22T20:52:06.364Z,30.90
2019-04-22T20:54:39.014Z,31.00
2019-04-22T20:57:02.766Z,31.50
2019-04-22T20:59:33.312Z,31.80
2019-04-22T21:02:01.939Z,32.50
2019-04-22T21:04:28.591Z,33.00
2019-04-22T21:07:08.058Z,33.20
2019-04-22T21:09:39.539Z,33.80
2019-04-22T21:12:05.140Z,33.70
2019-04-22T21:14:44.049Z,34.00
2019-04-22T21:17:13.713Z,34.20
2019-04-22T21:19:47.667Z,34.50
2019-04-22T21:22:19.384Z,34.50
2019-04-22T21:24:41.419Z,34.60
2019-04-22T21:27:22.292Z,34.90
2019-04-22T21:29:42.350Z,35.20
2019-04-22T21:32:17.464Z,35.20
2019-04-22T21:34:54.058Z,35.20
2019-04-22T21:37:30.160Z,35.50
2019-04-22T21:39:46.310Z,35.70
2019-04-22T21:42:24.563Z,35.80
2019-04-22T21:44:47.762Z,35.90
2019-04-22T21:47:28.717Z,35.90
2019-04-22T21:50:10.281Z,36.20
2019-04-22T21:52:29.381Z,36.40
2019-04-22T21:55:02.191Z,36.60
2019-04-22T21:57:57.264Z,36.70
2019-04-22T22:00:34.517Z,36.80
2019-04-22T22:02:58.583Z,36.80
2019-04-22T22:05:20.094Z,37.00
2019-04-22T22:07:48.089Z,37.30
2019-04-22T22:10:27.079Z,37.20
2019-04-22T22:13:03.349Z,37.50
2019-04-22T22:15:30.196Z,37.50
2019-04-22T22:17:55.760Z,37.60
2019-04-22T22:20:36.056Z,37.90
2019-04-22T22:23:11.474Z,38.00
2019-04-22T22:25:31.616Z,37.90
2019-04-22T22:28:08.793Z,38.10
2019-04-22T22:30:58.449Z,38.10
2019-04-22T22:33:05.980Z,38.50
2019-04-22T22:35:39.353Z,39.20
2019-04-22T22:38:05.239Z,38.70
2019-04-22T22:40:23.595Z,39.00
2019-04-22T22:42:52.961Z,38.90
2019-04-22T22:45:30.136Z,39.10
2019-04-22T22:48:13.361Z,39.90
2019-04-22T22:50:42.746Z,39.40
2019-04-22T22:53:23.974Z,39.50
2019-04-22T22:55:44.718Z,39.60
2019-04-22T22:58:17.693Z,40.00
2019-04-22T23:00:39.347Z,39.90
2019-04-22T23:05:55.388Z,40.10
2019-04-22T23:08:22.834Z,40.30
2019-04-22T23:10:55.393Z,40.30
2019-04-22T23:13:22.179Z,40.40
2019-04-22T23:15:46.678Z,40.50
2019-04-22T23:17:59.032Z,41.10
2019-04-22T23:20:35.400Z,41.20
2019-04-22T23:23:21.866Z,41.20
2019-04-22T23:25:56.787Z,40.60
2019-04-22T23:28:30.109Z,40.70
2019-04-22T23:31:22.120Z,40.60
2019-04-22T23:34:01.088Z,41.40
2019-04-22T23:36:56.413Z,40.70
2019-04-22T23:39:30.934Z,40.70
2019-04-22T23:42:06.117Z,41.00
2019-04-22T23:44:35.071Z,40.80
2019-04-22T23:47:23.922Z,40.90
2019-04-22T23:50:01.079Z,41.10
2019-04-22T23:52:35.715Z,41.00
2019-04-22T23:55:11.728Z,41.40
2019-04-22T23:57:40.801Z,41.10
